sensor_id;sensor_type;location;lat;lon;timestamp;P1;P2;P0
70436;PMS5003;57877;39.750;-104.894;2022-09-13T00:01:17;8;7;
70436;PMS5003;57877;39.750;-104.894;2022-09-13T00:03:42;7;6;
70436;PMS5003;57877;39.750;-104.894;2022-09-13T00:06:08;6;6;
70436;PMS5003;57877;39.750;-104.894;2022-09-13T00:08:32;8;8;
70436;PMS5003;57877;39.750;-104.894;2022-09-13T00:10:57;6;6;
70436;PMS5003;57877;39.750;-104.894;2022-09-13T00:13:22;7;7;
70436;PMS5003;57877;39.750;-104.894;2022-09-13T00:15:48;7;7;
70436;PMS5003;57877;39.750;-104.894;2022-09-13T00:18:12;8;8;
70436;PMS5003;57877;39.750;-104.894;2022-09-13T00:20:38;8;8;
70436;PMS5003;57877;39.750;-104.894;2022-09-13T00:23:03;6;5;
70436;PMS5003;57877;39.750;-104.894;2022-09-13T00:25:28;6;6;
70436;PMS5003;57877;39.750;-104.894;2022-09-13T00:27:53;9;7;
70436;PMS5003;57877;39.750;-104.894;2022-09-13T00:30:18;7;7;
70436;PMS5003;57877;39.750;-104.894;2022-09-13T00:32:43;9;8;
70436;PMS5003;57877;39.750;-104.894;2022-09-13T00:35:09;8;7;
70436;PMS5003;57877;39.750;-104.894;2022-09-13T00:37:34;7;6;
70436;PMS5003;57877;39.750;-104.894;2022-09-13T00:39:59;7;7;
70436;PMS5003;57877;39.750;-104.894;2022-09-13T00:42:24;7;7;
70436;PMS5003;57877;39.750;-104.894;2022-09-13T00:44:52;8;8;
70436;PMS5003;57877;39.750;-104.894;2022-09-13T00:47:14;7;7;
70436;PMS5003;57877;39.750;-104.894;2022-09-13T00:49:39;9;8;
70436;PMS5003;57877;39.750;-104.894;2022-09-13T00:52:04;7;6;
70436;PMS5003;57877;39.750;-104.894;2022-09-13T00:54:31;8;8;
70436;PMS5003;57877;39.750;-104.894;2022-09-13T00:56:55;8;8;
70436;PMS5003;57877;39.750;-104.894;2022-09-13T00:59:20;8;8;
70436;PMS5003;57877;39.750;-104.894;2022-09-13T01:01:46;7;6;
70436;PMS5003;57877;39.750;-104.894;2022-09-13T01:04:10;8;8;
70436;PMS5003;57877;39.750;-104.894;2022-09-13T01:06:35;8;8;
70436;PMS5003;57877;39.750;-104.894;2022-09-13T01:09:00;10;9;
70436;PMS5003;57877;39.750;-104.894;2022-09-13T01:11:26;9;9;
70436;PMS5003;57877;39.750;-104.894;2022-09-13T01:13:50;8;8;
70436;PMS5003;57877;39.750;-104.894;2022-09-13T01:16:16;9;8;
70436;PMS5003;57877;39.750;-104.894;2022-09-13T01:18:42;9;8;
70436;PMS5003;57877;39.750;-104.894;2022-09-13T01:21:14;8;8;
70436;PMS5003;57877;39.750;-104.894;2022-09-13T01:30:51;14;13;
70436;PMS5003;57877;39.750;-104.894;2022-09-13T01:33:22;12;11;
70436;PMS5003;57877;39.750;-104.894;2022-09-13T01:35:46;11;11;
70436;PMS5003;57877;39.750;-104.894;2022-09-13T01:38:12;12;12;
70436;PMS5003;57877;39.750;-104.894;2022-09-13T01:40:37;15;15;
70436;PMS5003;57877;39.750;-104.894;2022-09-13T01:43:03;10;10;
70436;PMS5003;57877;39.750;-104.894;2022-09-13T01:45:30;15;12;
70436;PMS5003;57877;39.750;-104.894;2022-09-13T01:47:52;13;11;
70436;PMS5003;57877;39.750;-104.894;2022-09-13T01:50:18;16;15;
70436;PMS5003;57877;39.750;-104.894;2022-09-13T01:52:44;13;13;
70436;PMS5003;57877;39.750;-104.894;2022-09-13T01:55:09;14;13;
70436;PMS5003;57877;39.750;-104.894;2022-09-13T01:57:34;15;15;
70436;PMS5003;57877;39.750;-104.894;2022-09-13T01:59:59;14;12;
70436;PMS5003;57877;39.750;-104.894;2022-09-13T02:02:25;19;18;
70436;PMS5003;57877;39.750;-104.894;2022-09-13T02:04:49;22;20;
70436;PMS5003;57877;39.750;-104.894;2022-09-13T02:07:15;20;20;
70436;PMS5003;57877;39.750;-104.894;2022-09-13T02:09:41;20;18;
70436;PMS5003;57877;39.750;-104.894;2022-09-13T02:12:05;18;18;
70436;PMS5003;57877;39.750;-104.894;2022-09-13T02:14:30;17;17;
70436;PMS5003;57877;39.750;-104.894;2022-09-13T02:16:57;21;18;
70436;PMS5003;57877;39.750;-104.894;2022-09-13T02:19:23;20;18;
70436;PMS5003;57877;39.750;-104.894;2022-09-13T02:21:50;19;18;
70436;PMS5003;57877;39.750;-104.894;2022-09-13T02:24:14;16;15;
70436;PMS5003;57877;39.750;-104.894;2022-09-13T02:26:39;19;19;
70436;PMS5003;57877;39.750;-104.894;2022-09-13T02:29:06;18;18;
70436;PMS5003;57877;39.750;-104.894;2022-09-13T02:31:32;17;16;
70436;PMS5003;57877;39.750;-104.894;2022-09-13T02:33:57;16;16;
70436;PMS5003;57877;39.750;-104.894;2022-09-13T02:36:21;19;18;
70436;PMS5003;57877;39.750;-104.894;2022-09-13T02:38:47;17;17;
70436;PMS5003;57877;39.750;-104.894;2022-09-13T02:41:12;18;18;
70436;PMS5003;57877;39.750;-104.894;2022-09-13T02:43:41;19;18;
70436;PMS5003;57877;39.750;-104.894;2022-09-13T02:46:05;17;15;
70436;PMS5003;57877;39.750;-104.894;2022-09-13T02:48:27;24;22;
70436;PMS5003;57877;39.750;-104.894;2022-09-13T02:50:55;18;17;
70436;PMS5003;57877;39.750;-104.894;2022-09-13T02:53:18;20;17;
70436;PMS5003;57877;39.750;-104.894;2022-09-13T02:55:43;16;16;
70436;PMS5003;57877;39.750;-104.894;2022-09-13T02:58:08;19;18;
70436;PMS5003;57877;39.750;-104.894;2022-09-13T03:00:32;20;19;
70436;PMS5003;57877;39.750;-104.894;2022-09-13T03:02:57;18;16;
70436;PMS5003;57877;39.750;-104.894;2022-09-13T03:05:23;19;19;
70436;PMS5003;57877;39.750;-104.894;2022-09-13T03:07:48;18;18;
70436;PMS5003;57877;39.750;-104.894;2022-09-13T03:10:13;17;17;
70436;PMS5003;57877;39.750;-104.894;2022-09-13T03:12:45;20;17;
70436;PMS5003;57877;39.750;-104.894;2022-09-13T03:15:06;18;17;
70436;PMS5003;57877;39.750;-104.894;2022-09-13T03:17:34;20;18;
70436;PMS5003;57877;39.750;-104.894;2022-09-13T03:19:59;19;18;
70436;PMS5003;57877;39.750;-104.894;2022-09-13T03:22:26;19;19;
70436;PMS5003;57877;39.750;-104.894;2022-09-13T03:24:48;19;18;
70436;PMS5003;57877;39.750;-104.894;2022-09-13T03:27:14;17;15;
70436;PMS5003;57877;39.750;-104.894;2022-09-13T03:29:39;19;18;
70436;PMS5003;57877;39.750;-104.894;2022-09-13T03:32:05;17;14;
70436;PMS5003;57877;39.750;-104.894;2022-09-13T03:34:30;15;15;
70436;PMS5003;57877;39.750;-104.894;2022-09-13T03:36:55;17;16;
70436;PMS5003;57877;39.750;-104.894;2022-09-13T03:39:22;18;18;
70436;PMS5003;57877;39.750;-104.894;2022-09-13T03:41:47;15;13;
70436;PMS5003;57877;39.750;-104.894;2022-09-13T03:44:12;22;22;
70436;PMS5003;57877;39.750;-104.894;2022-09-13T03:46:38;22;22;
70436;PMS5003;57877;39.750;-104.894;2022-09-13T03:49:04;22;22;
70436;PMS5003;57877;39.750;-104.894;2022-09-13T03:51:29;20;19;
70436;PMS5003;57877;39.750;-104.894;2022-09-13T03:53:57;19;19;
70436;PMS5003;57877;39.750;-104.894;2022-09-13T03:56:22;19;16;
70436;PMS5003;57877;39.750;-104.894;2022-09-13T03:58:48;18;17;
70436;PMS5003;57877;39.750;-104.894;2022-09-13T04:01:11;19;17;
70436;PMS5003;57877;39.750;-104.894;2022-09-13T04:03:35;16;15;
70436;PMS5003;57877;39.750;-104.894;2022-09-13T04:06:00;18;17;
70436;PMS5003;57877;39.750;-104.894;2022-09-13T04:08:26;16;15;
70436;PMS5003;57877;39.750;-104.894;2022-09-13T04:10:51;21;20;
70436;PMS5003;57877;39.750;-104.894;2022-09-13T04:13:16;20;20;
70436;PMS5003;57877;39.750;-104.894;2022-09-13T04:15:41;18;16;
70436;PMS5003;57877;39.750;-104.894;2022-09-13T04:18:06;13;11;
70436;PMS5003;57877;39.750;-104.894;2022-09-13T04:20:31;15;15;
70436;PMS5003;57877;39.750;-104.894;2022-09-13T04:22:56;15;12;
70436;PMS5003;57877;39.750;-104.894;2022-09-13T04:25:22;13;13;
70436;PMS5003;57877;39.750;-104.894;2022-09-13T04:27:48;10;9;
70436;PMS5003;57877;39.750;-104.894;2022-09-13T04:30:13;11;10;
70436;PMS5003;57877;39.750;-104.894;2022-09-13T04:32:41;10;9;
70436;PMS5003;57877;39.750;-104.894;2022-09-13T04:35:04;10;10;
70436;PMS5003;57877;39.750;-104.894;2022-09-13T04:37:29;9;8;
70436;PMS5003;57877;39.750;-104.894;2022-09-13T04:39:55;8;8;
70436;PMS5003;57877;39.750;-104.894;2022-09-13T04:42:21;11;11;
70436;PMS5003;57877;39.750;-104.894;2022-09-13T04:44:46;7;7;
70436;PMS5003;57877;39.750;-104.894;2022-09-13T04:47:12;8;8;
70436;PMS5003;57877;39.750;-104.894;2022-09-13T04:49:37;8;8;
70436;PMS5003;57877;39.750;-104.894;2022-09-13T04:52:02;9;9;
70436;PMS5003;57877;39.750;-104.894;2022-09-13T04:54:27;7;6;
70436;PMS5003;57877;39.750;-104.894;2022-09-13T04:56:52;7;7;
70436;PMS5003;57877;39.750;-104.894;2022-09-13T04:59:17;8;8;
70436;PMS5003;57877;39.750;-104.894;2022-09-13T05:01:42;8;8;
70436;PMS5003;57877;39.750;-104.894;2022-09-13T05:04:08;9;9;
70436;PMS5003;57877;39.750;-104.894;2022-09-13T05:06:32;7;7;
70436;PMS5003;57877;39.750;-104.894;2022-09-13T05:08:57;7;6;
70436;PMS5003;57877;39.750;-104.894;2022-09-13T05:11:23;10;10;
70436;PMS5003;57877;39.750;-104.894;2022-09-13T05:13:48;5;5;
70436;PMS5003;57877;39.750;-104.894;2022-09-13T05:16:12;7;7;
70436;PMS5003;57877;39.750;-104.894;2022-09-13T05:18:37;7;7;
70436;PMS5003;57877;39.750;-104.894;2022-09-13T05:21:03;8;6;
70436;PMS5003;57877;39.750;-104.894;2022-09-13T05:23:30;8;7;
70436;PMS5003;57877;39.750;-104.894;2022-09-13T05:25:55;9;9;
70436;PMS5003;57877;39.750;-104.894;2022-09-13T05:28:20;9;8;
70436;PMS5003;57877;39.750;-104.894;2022-09-13T05:33:12;8;7;
70436;PMS5003;57877;39.750;-104.894;2022-09-13T05:35:39;8;8;
70436;PMS5003;57877;39.750;-104.894;2022-09-13T05:38:03;6;6;
70436;PMS5003;57877;39.750;-104.894;2022-09-13T05:40:29;10;8;
70436;PMS5003;57877;39.750;-104.894;2022-09-13T05:42:53;7;7;
70436;PMS5003;57877;39.750;-104.894;2022-09-13T05:45:19;6;6;
70436;PMS5003;57877;39.750;-104.894;2022-09-13T05:47:49;5;5;
70436;PMS5003;57877;39.750;-104.894;2022-09-13T05:50:11;6;6;
70436;PMS5003;57877;39.750;-104.894;2022-09-13T05:52:35;8;8;
70436;PMS5003;57877;39.750;-104.894;2022-09-13T05:55:01;8;8;
70436;PMS5003;57877;39.750;-104.894;2022-09-13T05:57:26;6;6;
70436;PMS5003;57877;39.750;-104.894;2022-09-13T05:59:52;7;7;
70436;PMS5003;57877;39.750;-104.894;2022-09-13T06:02:18;6;6;
70436;PMS5003;57877;39.750;-104.894;2022-09-13T06:04:44;7;7;
70436;PMS5003;57877;39.750;-104.894;2022-09-13T06:07:10;8;8;
70436;PMS5003;57877;39.750;-104.894;2022-09-13T06:09:36;9;8;
70436;PMS5003;57877;39.750;-104.894;2022-09-13T06:12:02;7;7;
70436;PMS5003;57877;39.750;-104.894;2022-09-13T06:14:28;11;9;
70436;PMS5003;57877;39.750;-104.894;2022-09-13T06:16:53;7;7;
70436;PMS5003;57877;39.750;-104.894;2022-09-13T06:19:19;8;8;
70436;PMS5003;57877;39.750;-104.894;2022-09-13T06:21:45;7;7;
70436;PMS5003;57877;39.750;-104.894;2022-09-13T06:24:11;9;9;
70436;PMS5003;57877;39.750;-104.894;2022-09-13T06:26:37;10;9;
70436;PMS5003;57877;39.750;-104.894;2022-09-13T06:29:03;9;8;
70436;PMS5003;57877;39.750;-104.894;2022-09-13T06:31:29;10;10;
70436;PMS5003;57877;39.750;-104.894;2022-09-13T06:33:55;8;7;
70436;PMS5003;57877;39.750;-104.894;2022-09-13T06:36:21;11;9;
70436;PMS5003;57877;39.750;-104.894;2022-09-13T06:38:47;9;8;
70436;PMS5003;57877;39.750;-104.894;2022-09-13T06:41:14;8;8;
70436;PMS5003;57877;39.750;-104.894;2022-09-13T06:43:39;7;7;
70436;PMS5003;57877;39.750;-104.894;2022-09-13T06:46:06;6;6;
70436;PMS5003;57877;39.750;-104.894;2022-09-13T06:48:31;8;6;
70436;PMS5003;57877;39.750;-104.894;2022-09-13T06:50:57;8;7;
70436;PMS5003;57877;39.750;-104.894;2022-09-13T06:53:23;7;7;
70436;PMS5003;57877;39.750;-104.894;2022-09-13T06:55:53;8;8;
70436;PMS5003;57877;39.750;-104.894;2022-09-13T06:58:15;7;7;
70436;PMS5003;57877;39.750;-104.894;2022-09-13T07:00:41;7;7;
70436;PMS5003;57877;39.750;-104.894;2022-09-13T07:03:07;8;6;
70436;PMS5003;57877;39.750;-104.894;2022-09-13T07:05:33;9;8;
70436;PMS5003;57877;39.750;-104.894;2022-09-13T07:07:59;7;6;
70436;PMS5003;57877;39.750;-104.894;2022-09-13T07:10:24;8;7;
70436;PMS5003;57877;39.750;-104.894;2022-09-13T07:12:50;7;7;
70436;PMS5003;57877;39.750;-104.894;2022-09-13T07:15:15;6;6;
70436;PMS5003;57877;39.750;-104.894;2022-09-13T07:17:40;6;5;
70436;PMS5003;57877;39.750;-104.894;2022-09-13T07:20:07;7;7;
70436;PMS5003;57877;39.750;-104.894;2022-09-13T07:22:32;5;5;
70436;PMS5003;57877;39.750;-104.894;2022-09-13T07:24:58;7;6;
70436;PMS5003;57877;39.750;-104.894;2022-09-13T07:27:24;5;5;
70436;PMS5003;57877;39.750;-104.894;2022-09-13T07:29:50;6;6;
70436;PMS5003;57877;39.750;-104.894;2022-09-13T07:32:16;7;7;
70436;PMS5003;57877;39.750;-104.894;2022-09-13T07:34:42;3;3;
70436;PMS5003;57877;39.750;-104.894;2022-09-13T07:37:08;3;3;
70436;PMS5003;57877;39.750;-104.894;2022-09-13T07:39:34;5;5;
70436;PMS5003;57877;39.750;-104.894;2022-09-13T07:42:00;6;6;
70436;PMS5003;57877;39.750;-104.894;2022-09-13T07:44:26;6;5;
70436;PMS5003;57877;39.750;-104.894;2022-09-13T07:46:51;7;5;
70436;PMS5003;57877;39.750;-104.894;2022-09-13T07:49:17;6;6;
70436;PMS5003;57877;39.750;-104.894;2022-09-13T07:51:42;7;6;
70436;PMS5003;57877;39.750;-104.894;2022-09-13T07:54:12;6;6;
70436;PMS5003;57877;39.750;-104.894;2022-09-13T07:56:33;6;5;
70436;PMS5003;57877;39.750;-104.894;2022-09-13T07:58:58;7;7;
70436;PMS5003;57877;39.750;-104.894;2022-09-13T08:01:24;6;5;
70436;PMS5003;57877;39.750;-104.894;2022-09-13T08:03:50;8;7;
70436;PMS5003;57877;39.750;-104.894;2022-09-13T08:06:13;7;7;
70436;PMS5003;57877;39.750;-104.894;2022-09-13T08:08:38;6;4;
70436;PMS5003;57877;39.750;-104.894;2022-09-13T08:11:04;6;6;
70436;PMS5003;57877;39.750;-104.894;2022-09-13T08:13:28;5;5;
70436;PMS5003;57877;39.750;-104.894;2022-09-13T08:15:53;4;4;
70436;PMS5003;57877;39.750;-104.894;2022-09-13T08:18:18;4;4;
70436;PMS5003;57877;39.750;-104.894;2022-09-13T08:20:43;5;5;
70436;PMS5003;57877;39.750;-104.894;2022-09-13T08:23:09;6;5;
70436;PMS5003;57877;39.750;-104.894;2022-09-13T08:25:35;4;4;
70436;PMS5003;57877;39.750;-104.894;2022-09-13T08:27:58;5;4;
70436;PMS5003;57877;39.750;-104.894;2022-09-13T08:30:23;5;5;
70436;PMS5003;57877;39.750;-104.894;2022-09-13T08:32:49;5;5;
70436;PMS5003;57877;39.750;-104.894;2022-09-13T08:35:13;3;3;
70436;PMS5003;57877;39.750;-104.894;2022-09-13T08:37:39;5;4;
70436;PMS5003;57877;39.750;-104.894;2022-09-13T08:40:05;7;6;
70436;PMS5003;57877;39.750;-104.894;2022-09-13T08:42:35;5;5;
70436;PMS5003;57877;39.750;-104.894;2022-09-13T08:44:56;6;6;
70436;PMS5003;57877;39.750;-104.894;2022-09-13T08:47:25;5;4;
70436;PMS5003;57877;39.750;-104.894;2022-09-13T08:49:47;4;4;
70436;PMS5003;57877;39.750;-104.894;2022-09-13T08:52:15;6;6;
70436;PMS5003;57877;39.750;-104.894;2022-09-13T08:54:36;6;4;
70436;PMS5003;57877;39.750;-104.894;2022-09-13T08:57:02;5;5;
70436;PMS5003;57877;39.750;-104.894;2022-09-13T08:59:30;5;5;
70436;PMS5003;57877;39.750;-104.894;2022-09-13T09:01:53;5;4;
70436;PMS5003;57877;39.750;-104.894;2022-09-13T09:04:23;5;5;
70436;PMS5003;57877;39.750;-104.894;2022-09-13T09:06:42;6;6;
70436;PMS5003;57877;39.750;-104.894;2022-09-13T09:09:09;6;5;
70436;PMS5003;57877;39.750;-104.894;2022-09-13T09:11:34;6;6;
70436;PMS5003;57877;39.750;-104.894;2022-09-13T09:14:00;7;7;
70436;PMS5003;57877;39.750;-104.894;2022-09-13T09:16:26;5;5;
70436;PMS5003;57877;39.750;-104.894;2022-09-13T09:18:47;6;6;
70436;PMS5003;57877;39.750;-104.894;2022-09-13T09:21:13;7;7;
70436;PMS5003;57877;39.750;-104.894;2022-09-13T09:23:39;7;6;
70436;PMS5003;57877;39.750;-104.894;2022-09-13T09:28:28;7;7;
70436;PMS5003;57877;39.750;-104.894;2022-09-13T09:30:56;5;4;
70436;PMS5003;57877;39.750;-104.894;2022-09-13T09:33:22;6;6;
70436;PMS5003;57877;39.750;-104.894;2022-09-13T09:35:46;5;5;
70436;PMS5003;57877;39.750;-104.894;2022-09-13T09:40:34;5;5;
70436;PMS5003;57877;39.750;-104.894;2022-09-13T09:42:59;4;3;
70436;PMS5003;57877;39.750;-104.894;2022-09-13T09:45:25;4;3;
70436;PMS5003;57877;39.750;-104.894;2022-09-13T09:47:49;5;5;
70436;PMS5003;57877;39.750;-104.894;2022-09-13T09:50:15;5;5;
70436;PMS5003;57877;39.750;-104.894;2022-09-13T09:52:41;5;4;
70436;PMS5003;57877;39.750;-104.894;2022-09-13T09:59:58;4;4;
70436;PMS5003;57877;39.750;-104.894;2022-09-13T10:02:20;4;4;
70436;PMS5003;57877;39.750;-104.894;2022-09-13T10:09:36;5;4;
70436;PMS5003;57877;39.750;-104.894;2022-09-13T10:12:01;5;3;
70436;PMS5003;57877;39.750;-104.894;2022-09-13T10:14:27;6;6;
70436;PMS5003;57877;39.750;-104.894;2022-09-13T10:16:53;5;4;
70436;PMS5003;57877;39.750;-104.894;2022-09-13T10:19:22;6;6;
70436;PMS5003;57877;39.750;-104.894;2022-09-13T10:21:41;4;4;
70436;PMS5003;57877;39.750;-104.894;2022-09-13T10:26:31;9;7;
70436;PMS5003;57877;39.750;-104.894;2022-09-13T10:28:58;6;6;
70436;PMS5003;57877;39.750;-104.894;2022-09-13T10:31:26;6;5;
70436;PMS5003;57877;39.750;-104.894;2022-09-13T10:33:51;7;6;
70436;PMS5003;57877;39.750;-104.894;2022-09-13T10:36:12;7;7;
70436;PMS5003;57877;39.750;-104.894;2022-09-13T10:38:37;3;3;
70436;PMS5003;57877;39.750;-104.894;2022-09-13T10:41:02;7;6;
70436;PMS5003;57877;39.750;-104.894;2022-09-13T10:43:28;5;5;
70436;PMS5003;57877;39.750;-104.894;2022-09-13T10:45:52;7;6;
70436;PMS5003;57877;39.750;-104.894;2022-09-13T10:48:17;4;4;
70436;PMS5003;57877;39.750;-104.894;2022-09-13T10:50:58;7;7;
70436;PMS5003;57877;39.750;-104.894;2022-09-13T10:53:23;6;5;
70436;PMS5003;57877;39.750;-104.894;2022-09-13T10:55:33;8;7;
70436;PMS5003;57877;39.750;-104.894;2022-09-13T11:00:23;7;7;
70436;PMS5003;57877;39.750;-104.894;2022-09-13T11:02:53;5;4;
70436;PMS5003;57877;39.750;-104.894;2022-09-13T11:05:17;6;6;
70436;PMS5003;57877;39.750;-104.894;2022-09-13T11:10:04;7;6;
70436;PMS5003;57877;39.750;-104.894;2022-09-13T11:12:29;7;7;
70436;PMS5003;57877;39.750;-104.894;2022-09-13T11:14:56;5;5;
70436;PMS5003;57877;39.750;-104.894;2022-09-13T11:17:20;7;6;
70436;PMS5003;57877;39.750;-104.894;2022-09-13T11:19:49;6;6;
70436;PMS5003;57877;39.750;-104.894;2022-09-13T11:22:12;7;7;
70436;PMS5003;57877;39.750;-104.894;2022-09-13T11:24:37;5;4;
70436;PMS5003;57877;39.750;-104.894;2022-09-13T11:26:59;4;4;
70436;PMS5003;57877;39.750;-104.894;2022-09-13T11:29:30;7;6;
70436;PMS5003;57877;39.750;-104.894;2022-09-13T11:31:49;9;7;
70436;PMS5003;57877;39.750;-104.894;2022-09-13T11:34:16;7;7;
70436;PMS5003;57877;39.750;-104.894;2022-09-13T11:36:43;7;7;
70436;PMS5003;57877;39.750;-104.894;2022-09-13T11:39:06;5;5;
70436;PMS5003;57877;39.750;-104.894;2022-09-13T11:41:31;4;4;
70436;PMS5003;57877;39.750;-104.894;2022-09-13T11:43:58;6;6;
70436;PMS5003;57877;39.750;-104.894;2022-09-13T11:46:21;5;5;
70436;PMS5003;57877;39.750;-104.894;2022-09-13T11:48:50;6;6;
70436;PMS5003;57877;39.750;-104.894;2022-09-13T11:51:10;6;6;
70436;PMS5003;57877;39.750;-104.894;2022-09-13T11:53:38;6;5;
70436;PMS5003;57877;39.750;-104.894;2022-09-13T11:55:59;6;4;
70436;PMS5003;57877;39.750;-104.894;2022-09-13T11:58:25;6;6;
70436;PMS5003;57877;39.750;-104.894;2022-09-13T12:00:49;7;6;
70436;PMS5003;57877;39.750;-104.894;2022-09-13T12:03:15;7;6;
70436;PMS5003;57877;39.750;-104.894;2022-09-13T12:05:39;6;5;
70436;PMS5003;57877;39.750;-104.894;2022-09-13T12:08:05;4;4;
70436;PMS5003;57877;39.750;-104.894;2022-09-13T12:10:29;6;6;
70436;PMS5003;57877;39.750;-104.894;2022-09-13T12:12:54;3;3;
70436;PMS5003;57877;39.750;-104.894;2022-09-13T12:15:21;5;5;
70436;PMS5003;57877;39.750;-104.894;2022-09-13T12:17:45;6;6;
70436;PMS5003;57877;39.750;-104.894;2022-09-13T12:20:12;6;6;
70436;PMS5003;57877;39.750;-104.894;2022-09-13T12:22:34;6;6;
70436;PMS5003;57877;39.750;-104.894;2022-09-13T12:25:02;6;5;
70436;PMS5003;57877;39.750;-104.894;2022-09-13T12:27:28;8;7;
70436;PMS5003;57877;39.750;-104.894;2022-09-13T12:29:53;7;7;
70436;PMS5003;57877;39.750;-104.894;2022-09-13T12:32:18;6;6;
70436;PMS5003;57877;39.750;-104.894;2022-09-13T12:34:45;5;5;
70436;PMS5003;57877;39.750;-104.894;2022-09-13T12:37:15;6;6;
70436;PMS5003;57877;39.750;-104.894;2022-09-13T12:39:40;6;6;
70436;PMS5003;57877;39.750;-104.894;2022-09-13T12:46:57;6;5;
70436;PMS5003;57877;39.750;-104.894;2022-09-13T12:49:24;7;7;
70436;PMS5003;57877;39.750;-104.894;2022-09-13T12:51:51;7;6;
70436;PMS5003;57877;39.750;-104.894;2022-09-13T12:54:16;3;2;
70436;PMS5003;57877;39.750;-104.894;2022-09-13T12:56:42;6;6;
70436;PMS5003;57877;39.750;-104.894;2022-09-13T12:59:08;5;5;
70436;PMS5003;57877;39.750;-104.894;2022-09-13T13:01:30;6;5;
70436;PMS5003;57877;39.750;-104.894;2022-09-13T13:03:56;5;4;
70436;PMS5003;57877;39.750;-104.894;2022-09-13T13:08:49;5;5;
70436;PMS5003;57877;39.750;-104.894;2022-09-13T13:11:13;7;4;
70436;PMS5003;57877;39.750;-104.894;2022-09-13T13:13:41;9;8;
70436;PMS5003;57877;39.750;-104.894;2022-09-13T13:18:42;6;6;
70436;PMS5003;57877;39.750;-104.894;2022-09-13T13:23:24;4;4;
70436;PMS5003;57877;39.750;-104.894;2022-09-13T13:35:32;5;5;
70436;PMS5003;57877;39.750;-104.894;2022-09-13T13:40:25;3;3;
70436;PMS5003;57877;39.750;-104.894;2022-09-13T13:45:18;5;5;
70436;PMS5003;57877;39.750;-104.894;2022-09-13T13:50:14;7;7;
70436;PMS5003;57877;39.750;-104.894;2022-09-13T13:52:36;5;5;
70436;PMS5003;57877;39.750;-104.894;2022-09-13T13:55:01;5;5;
70436;PMS5003;57877;39.750;-104.894;2022-09-13T13:57:28;5;5;
70436;PMS5003;57877;39.750;-104.894;2022-09-13T13:59:53;4;4;
70436;PMS5003;57877;39.750;-104.894;2022-09-13T14:02:20;6;5;
70436;PMS5003;57877;39.750;-104.894;2022-09-13T14:07:13;6;6;
70436;PMS5003;57877;39.750;-104.894;2022-09-13T14:09:37;5;5;
70436;PMS5003;57877;39.750;-104.894;2022-09-13T14:12:09;4;4;
70436;PMS5003;57877;39.750;-104.894;2022-09-13T14:14:32;5;5;
70436;PMS5003;57877;39.750;-104.894;2022-09-13T14:16:58;4;4;
70436;PMS5003;57877;39.750;-104.894;2022-09-13T14:19:22;7;7;
70436;PMS5003;57877;39.750;-104.894;2022-09-13T14:21:46;7;7;
70436;PMS5003;57877;39.750;-104.894;2022-09-13T14:24:15;5;5;
70436;PMS5003;57877;39.750;-104.894;2022-09-13T14:26:38;6;6;
70436;PMS5003;57877;39.750;-104.894;2022-09-13T14:29:06;4;4;
70436;PMS5003;57877;39.750;-104.894;2022-09-13T14:31:30;6;6;
70436;PMS5003;57877;39.750;-104.894;2022-09-13T14:33:56;5;5;
70436;PMS5003;57877;39.750;-104.894;2022-09-13T14:36:22;4;4;
70436;PMS5003;57877;39.750;-104.894;2022-09-13T14:38:49;4;3;
70436;PMS5003;57877;39.750;-104.894;2022-09-13T14:41:15;6;5;
70436;PMS5003;57877;39.750;-104.894;2022-09-13T14:43:39;4;4;
70436;PMS5003;57877;39.750;-104.894;2022-09-13T14:46:06;7;7;
70436;PMS5003;57877;39.750;-104.894;2022-09-13T14:48:32;3;3;
70436;PMS5003;57877;39.750;-104.894;2022-09-13T14:50:59;4;4;
70436;PMS5003;57877;39.750;-104.894;2022-09-13T14:53:24;4;4;
70436;PMS5003;57877;39.750;-104.894;2022-09-13T14:55:50;6;5;
70436;PMS5003;57877;39.750;-104.894;2022-09-13T14:58:16;3;3;
70436;PMS5003;57877;39.750;-104.894;2022-09-13T15:00:45;5;5;
70436;PMS5003;57877;39.750;-104.894;2022-09-13T15:03:10;4;4;
70436;PMS5003;57877;39.750;-104.894;2022-09-13T15:05:32;4;4;
70436;PMS5003;57877;39.750;-104.894;2022-09-13T15:07:57;4;3;
70436;PMS5003;57877;39.750;-104.894;2022-09-13T15:10:23;5;5;
70436;PMS5003;57877;39.750;-104.894;2022-09-13T15:12:48;5;5;
70436;PMS5003;57877;39.750;-104.894;2022-09-13T15:20:04;4;4;
70436;PMS5003;57877;39.750;-104.894;2022-09-13T15:22:29;6;6;
70436;PMS5003;57877;39.750;-104.894;2022-09-13T15:24:54;4;4;
70436;PMS5003;57877;39.750;-104.894;2022-09-13T15:27:20;5;5;
70436;PMS5003;57877;39.750;-104.894;2022-09-13T15:29:47;4;3;
70436;PMS5003;57877;39.750;-104.894;2022-09-13T15:34:34;4;4;
70436;PMS5003;57877;39.750;-104.894;2022-09-13T15:37:07;5;5;
70436;PMS5003;57877;39.750;-104.894;2022-09-13T15:39:24;5;5;
70436;PMS5003;57877;39.750;-104.894;2022-09-13T15:41:51;3;3;
70436;PMS5003;57877;39.750;-104.894;2022-09-13T15:44:14;7;7;
70436;PMS5003;57877;39.750;-104.894;2022-09-13T15:46:43;6;6;
70436;PMS5003;57877;39.750;-104.894;2022-09-13T15:49:04;6;6;
70436;PMS5003;57877;39.750;-104.894;2022-09-13T15:51:29;7;7;
70436;PMS5003;57877;39.750;-104.894;2022-09-13T15:53:54;6;6;
70436;PMS5003;57877;39.750;-104.894;2022-09-13T15:56:20;5;5;
70436;PMS5003;57877;39.750;-104.894;2022-09-13T15:58:45;6;6;
70436;PMS5003;57877;39.750;-104.894;2022-09-13T16:01:10;5;5;
70436;PMS5003;57877;39.750;-104.894;2022-09-13T16:03:35;5;5;
70436;PMS5003;57877;39.750;-104.894;2022-09-13T16:06:00;5;5;
70436;PMS5003;57877;39.750;-104.894;2022-09-13T16:08:25;4;4;
70436;PMS5003;57877;39.750;-104.894;2022-09-13T16:10:50;5;5;
70436;PMS5003;57877;39.750;-104.894;2022-09-13T16:13:15;5;4;
70436;PMS5003;57877;39.750;-104.894;2022-09-13T16:15:40;5;5;
70436;PMS5003;57877;39.750;-104.894;2022-09-13T16:18:05;4;4;
70436;PMS5003;57877;39.750;-104.894;2022-09-13T16:20:30;6;6;
70436;PMS5003;57877;39.750;-104.894;2022-09-13T16:22:55;6;6;
70436;PMS5003;57877;39.750;-104.894;2022-09-13T16:25:20;6;6;
70436;PMS5003;57877;39.750;-104.894;2022-09-13T16:27:45;5;4;
70436;PMS5003;57877;39.750;-104.894;2022-09-13T16:30:16;5;4;
70436;PMS5003;57877;39.750;-104.894;2022-09-13T16:32:36;5;5;
70436;PMS5003;57877;39.750;-104.894;2022-09-13T16:35:01;6;6;
70436;PMS5003;57877;39.750;-104.894;2022-09-13T16:37:26;6;5;
70436;PMS5003;57877;39.750;-104.894;2022-09-13T16:39:51;5;5;
70436;PMS5003;57877;39.750;-104.894;2022-09-13T16:42:16;4;3;
70436;PMS5003;57877;39.750;-104.894;2022-09-13T16:44:41;6;6;
70436;PMS5003;57877;39.750;-104.894;2022-09-13T16:47:06;11;11;
70436;PMS5003;57877;39.750;-104.894;2022-09-13T16:49:31;12;12;
70436;PMS5003;57877;39.750;-104.894;2022-09-13T16:51:57;11;10;